Time;durP1;ratioP1;P1;durP2;ratioP2;P2;SDS_P1;SDS_P2;PMS_P1;PMS_P2;Temp;Humidity;BMP_temperature;BMP_pressure;BME280_temperature;BME280_humidity;BME280_pressure;Samples;Min_cycle;Max_cycle;Signal;HPM_P1;HPM_P2
2022/11/30 00:00:14;;;;;;;;;;;21.10;40.20;;;;;;478659;248;1294;-45
2022/11/30 00:02:15;;;;;;;;;;;21.20;40.30;;;;;;478341;248;1212;-44
2022/11/30 00:04:16;;;;;;;;;;;21.20;40.20;;;;;;478234;248;1332;-44
2022/11/30 00:06:21;;;;;;;;;;;21.20;40.20;;;;;;478242;248;1242;-44
2022/11/30 00:08:19;;;;;;;;;;;21.20;40.20;;;;;;478283;249;2040;-44
2022/11/30 00:10:21;;;;;;;;;;;21.20;40.20;;;;;;478535;248;1402;-44
2022/11/30 00:12:22;;;;;;;;;;;21.20;40.20;;;;;;478338;248;1225;-44
2022/11/30 00:14:23;;;;;;;;;;;21.10;40.20;;;;;;478320;248;1279;-44
2022/11/30 00:16:26;;;;;;;;;;;21.10;40.20;;;;;;478650;248;1224;-44
2022/11/30 00:18:26;;;;;;;;;;;21.10;40.20;;;;;;478577;248;2191;-44
2022/11/30 00:20:28;;;;;;;;;;;21.10;40.20;;;;;;478280;248;1173;-44
2022/11/30 00:22:29;;;;;;;;;;;21.10;40.20;;;;;;478151;249;2254;-44
2022/11/30 00:24:30;;;;;;;;;;;21.10;40.20;;;;;;478269;248;1594;-44
2022/11/30 00:26:32;;;;;;;;;;;21.00;40.30;;;;;;478240;248;1261;-44
2022/11/30 00:28:33;;;;;;;;;;;21.10;40.30;;;;;;478218;248;1390;-44
2022/11/30 00:30:34;;;;;;;;;;;21.10;40.30;;;;;;478398;248;1275;-44
2022/11/30 00:32:36;;;;;;;;;;;21.10;40.30;;;;;;478253;248;1220;-44
2022/11/30 00:34:37;;;;;;;;;;;21.10;40.20;;;;;;478164;248;1813;-44
2022/11/30 00:36:38;;;;;;;;;;;21.10;40.20;;;;;;478455;248;1426;-44
2022/11/30 00:38:40;;;;;;;;;;;21.10;40.30;;;;;;478201;248;2194;-44
2022/11/30 00:40:41;;;;;;;;;;;21.10;40.20;;;;;;478596;248;1278;-44
2022/11/30 00:42:42;;;;;;;;;;;21.10;40.30;;;;;;478410;248;1321;-44
2022/11/30 00:44:44;;;;;;;;;;;21.10;40.20;;;;;;478224;248;1270;-44
2022/11/30 00:46:45;;;;;;;;;;;21.10;40.20;;;;;;478426;248;1523;-44
2022/11/30 00:48:46;;;;;;;;;;;21.10;40.20;;;;;;478213;248;1234;-44
2022/11/30 00:50:48;;;;;;;;;;;21.00;40.20;;;;;;478308;248;1243;-44
2022/11/30 00:52:49;;;;;;;;;;;21.10;40.30;;;;;;478225;248;1324;-44
2022/11/30 00:54:50;;;;;;;;;;;21.00;40.40;;;;;;478596;248;1326;-44
2022/11/30 00:56:52;;;;;;;;;;;21.00;40.30;;;;;;478407;248;1413;-44
2022/11/30 00:58:53;;;;;;;;;;;21.00;40.30;;;;;;478207;248;2211;-44
2022/11/30 01:00:54;;;;;;;;;;;21.00;40.30;;;;;;478278;248;1636;-44
2022/11/30 01:02:55;;;;;;;;;;;21.10;40.30;;;;;;478209;248;1334;-44
2022/11/30 01:04:57;;;;;;;;;;;21.00;40.40;;;;;;478301;248;1686;-45
2022/11/30 01:06:58;;;;;;;;;;;21.00;40.30;;;;;;478229;248;1297;-44
2022/11/30 01:09:01;;;;;;;;;;;21.00;40.40;;;;;;478233;248;1317;-44
2022/11/30 01:11:01;;;;;;;;;;;21.00;40.40;;;;;;478082;249;1924;-44
2022/11/30 01:13:02;;;;;;;;;;;21.00;40.50;;;;;;478257;248;1382;-44
2022/11/30 01:15:03;;;;;;;;;;;21.00;40.40;;;;;;478256;248;1601;-45
2022/11/30 01:17:05;;;;;;;;;;;21.00;40.30;;;;;;478401;248;1252;-44
2022/11/30 01:19:06;;;;;;;;;;;21.00;40.30;;;;;;478230;248;2144;-44
2022/11/30 01:21:07;;;;;;;;;;;21.00;40.30;;;;;;478321;248;1233;-44
2022/11/30 01:23:09;;;;;;;;;;;21.00;40.40;;;;;;478320;248;1623;-44
2022/11/30 01:25:10;;;;;;;;;;;21.10;40.40;;;;;;478215;248;1704;-44
2022/11/30 01:27:11;;;;;;;;;;;21.00;40.30;;;;;;478185;248;1350;-44
2022/11/30 01:29:13;;;;;;;;;;;21.00;40.30;;;;;;478620;248;1216;-45
2022/11/30 01:31:14;;;;;;;;;;;21.10;40.30;;;;;;478298;248;1353;-44
2022/11/30 01:33:15;;;;;;;;;;;21.00;40.30;;;;;;478336;248;1227;-45
2022/11/30 01:35:17;;;;;;;;;;;21.00;40.30;;;;;;478530;248;1221;-44
2022/11/30 01:37:18;;;;;;;;;;;21.10;40.30;;;;;;478197;248;1336;-44
2022/11/30 01:39:19;;;;;;;;;;;21.00;40.30;;;;;;478229;248;2210;-44
2022/11/30 01:41:21;;;;;;;;;;;21.00;40.30;;;;;;478154;248;1223;-44
2022/11/30 01:43:22;;;;;;;;;;;21.00;40.40;;;;;;478198;248;1331;-44
2022/11/30 01:45:24;;;;;;;;;;;21.00;40.50;;;;;;478352;248;1291;-44
2022/11/30 01:47:25;;;;;;;;;;;21.00;40.50;;;;;;478340;248;1673;-44
2022/11/30 01:49:26;;;;;;;;;;;21.00;40.50;;;;;;478204;248;1359;-44
2022/11/30 01:51:28;;;;;;;;;;;20.90;40.40;;;;;;478529;248;1505;-44
2022/11/30 01:53:29;;;;;;;;;;;21.00;40.40;;;;;;478266;248;1778;-44
2022/11/30 01:55:30;;;;;;;;;;;20.90;40.50;;;;;;478230;248;1469;-44
2022/11/30 01:57:32;;;;;;;;;;;21.00;40.50;;;;;;478378;248;1450;-44
2022/11/30 01:59:33;;;;;;;;;;;21.00;40.40;;;;;;478234;248;2190;-44
2022/11/30 02:01:35;;;;;;;;;;;21.00;40.40;;;;;;478488;248;1256;-44
2022/11/30 02:03:36;;;;;;;;;;;21.00;40.40;;;;;;478282;248;1235;-45
2022/11/30 02:05:37;;;;;;;;;;;20.90;40.40;;;;;;478418;248;1208;-44
2022/11/30 02:07:39;;;;;;;;;;;20.90;40.40;;;;;;478340;248;1671;-44
2022/11/30 02:09:40;;;;;;;;;;;20.90;40.40;;;;;;478309;248;1179;-44
2022/11/30 02:11:41;;;;;;;;;;;20.90;40.40;;;;;;478455;248;1321;-45
2022/11/30 02:13:42;;;;;;;;;;;20.90;40.40;;;;;;478404;248;1689;-44
2022/11/30 02:15:44;;;;;;;;;;;21.00;40.40;;;;;;478276;248;1270;-44
2022/11/30 02:17:45;;;;;;;;;;;20.90;40.40;;;;;;478383;248;1316;-44
2022/11/30 02:19:47;;;;;;;;;;;20.90;40.50;;;;;;478305;248;2194;-44
2022/11/30 02:21:48;;;;;;;;;;;20.90;40.50;;;;;;478506;248;1921;-44
2022/11/30 02:23:50;;;;;;;;;;;20.90;40.50;;;;;;478322;248;1393;-44
2022/11/30 02:25:51;;;;;;;;;;;20.90;40.40;;;;;;478198;248;1386;-44
2022/11/30 02:27:52;;;;;;;;;;;20.90;40.40;;;;;;478220;248;1304;-44
2022/11/30 02:29:54;;;;;;;;;;;21.00;40.40;;;;;;478442;248;1254;-44
2022/11/30 02:31:55;;;;;;;;;;;20.90;40.40;;;;;;478173;248;1603;-44
2022/11/30 02:33:56;;;;;;;;;;;20.90;40.40;;;;;;478213;248;1644;-44
2022/11/30 02:35:57;;;;;;;;;;;20.90;40.40;;;;;;478109;248;1619;-44
2022/11/30 02:37:59;;;;;;;;;;;20.90;40.40;;;;;;478202;248;1689;-44
2022/11/30 02:40:00;;;;;;;;;;;21.00;40.40;;;;;;478193;248;2159;-44
2022/11/30 02:42:02;;;;;;;;;;;21.00;40.50;;;;;;478267;248;1308;-44
2022/11/30 02:44:03;;;;;;;;;;;20.90;40.40;;;;;;478209;248;1234;-44
2022/11/30 02:46:04;;;;;;;;;;;20.90;40.40;;;;;;478124;248;1252;-44
2022/11/30 02:48:05;;;;;;;;;;;20.90;40.40;;;;;;478258;248;1373;-44
2022/11/30 02:50:07;;;;;;;;;;;20.90;40.40;;;;;;478245;248;1338;-44
2022/11/30 02:52:08;;;;;;;;;;;20.90;40.40;;;;;;478215;248;1382;-45
2022/11/30 02:54:09;;;;;;;;;;;20.90;40.40;;;;;;478266;248;1408;-44
2022/11/30 02:56:11;;;;;;;;;;;20.90;40.50;;;;;;478231;248;1429;-44
2022/11/30 02:58:12;;;;;;;;;;;20.90;40.40;;;;;;478429;248;1393;-44
2022/11/30 03:00:13;;;;;;;;;;;20.90;40.40;;;;;;478317;248;2183;-44
2022/11/30 03:02:15;;;;;;;;;;;20.90;40.40;;;;;;478612;248;1729;-44
2022/11/30 03:04:16;;;;;;;;;;;20.90;40.40;;;;;;478219;248;1254;-44
2022/11/30 03:06:17;;;;;;;;;;;20.90;40.50;;;;;;478269;248;1750;-44
2022/11/30 03:08:19;;;;;;;;;;;20.90;40.50;;;;;;478172;248;1828;-44
2022/11/30 03:10:20;;;;;;;;;;;20.90;40.50;;;;;;478548;248;1254;-44
2022/11/30 03:12:21;;;;;;;;;;;20.90;40.50;;;;;;478719;248;1711;-44
2022/11/30 03:14:23;;;;;;;;;;;20.90;40.50;;;;;;478418;248;1293;-44
2022/11/30 03:16:24;;;;;;;;;;;20.90;40.50;;;;;;478261;248;1297;-44
2022/11/30 03:18:25;;;;;;;;;;;20.90;40.40;;;;;;478262;248;1546;-44
2022/11/30 03:20:27;;;;;;;;;;;21.00;40.40;;;;;;478265;248;2159;-44
2022/11/30 03:22:28;;;;;;;;;;;20.90;40.40;;;;;;478259;248;1276;-44
2022/11/30 03:24:29;;;;;;;;;;;21.00;40.40;;;;;;478281;248;1603;-45
2022/11/30 03:26:31;;;;;;;;;;;21.10;40.10;;;;;;478555;248;1247;-44
2022/11/30 03:28:32;;;;;;;;;;;21.30;39.70;;;;;;478480;248;1238;-44
2022/11/30 03:30:33;;;;;;;;;;;21.50;39.40;;;;;;478589;248;1201;-45
2022/11/30 03:32:35;;;;;;;;;;;21.60;39.10;;;;;;478329;248;1358;-44
2022/11/30 03:34:36;;;;;;;;;;;21.80;38.80;;;;;;478237;248;1272;-45
2022/11/30 03:36:37;;;;;;;;;;;21.80;38.70;;;;;;478713;248;1211;-45
2022/11/30 03:38:39;;;;;;;;;;;21.90;38.50;;;;;;478270;248;1489;-44
2022/11/30 03:40:40;;;;;;;;;;;22.00;38.40;;;;;;478397;248;2156;-45
2022/11/30 03:42:41;;;;;;;;;;;22.10;38.30;;;;;;478381;248;1240;-44
2022/11/30 03:44:42;;;;;;;;;;;22.10;38.10;;;;;;478338;248;1265;-44
2022/11/30 03:46:44;;;;;;;;;;;22.20;38.10;;;;;;478284;248;1196;-44
2022/11/30 03:48:45;;;;;;;;;;;22.20;38.00;;;;;;478279;248;1546;-45
2022/11/30 03:50:48;;;;;;;;;;;22.20;37.90;;;;;;478587;248;1320;-45
2022/11/30 03:52:48;;;;;;;;;;;22.30;37.80;;;;;;478453;248;2131;-44
2022/11/30 03:54:49;;;;;;;;;;;22.40;37.80;;;;;;478394;248;1337;-44
2022/11/30 03:56:51;;;;;;;;;;;22.40;37.80;;;;;;478342;248;1645;-44
2022/11/30 03:58:52;;;;;;;;;;;22.40;37.70;;;;;;478255;248;1231;-44
2022/11/30 04:00:53;;;;;;;;;;;22.40;37.60;;;;;;478458;248;2166;-45
2022/11/30 04:02:55;;;;;;;;;;;22.40;37.60;;;;;;478307;248;1521;-45
2022/11/30 04:04:56;;;;;;;;;;;22.50;37.60;;;;;;478338;248;1200;-45
2022/11/30 04:06:57;;;;;;;;;;;22.50;37.50;;;;;;478295;248;1588;-45
2022/11/30 04:08:59;;;;;;;;;;;22.60;37.50;;;;;;478335;248;1225;-44
2022/11/30 04:11:00;;;;;;;;;;;22.50;37.40;;;;;;478288;248;1250;-44
2022/11/30 04:13:01;;;;;;;;;;;22.60;37.40;;;;;;478493;248;1301;-45
2022/11/30 04:15:03;;;;;;;;;;;22.60;37.40;;;;;;478492;248;1272;-45
2022/11/30 04:17:04;;;;;;;;;;;22.60;37.30;;;;;;478271;248;1266;-44
2022/11/30 04:19:05;;;;;;;;;;;22.60;37.30;;;;;;478499;248;1514;-45
2022/11/30 04:21:07;;;;;;;;;;;22.70;37.30;;;;;;478320;248;2183;-44
2022/11/30 04:23:08;;;;;;;;;;;22.70;37.30;;;;;;478287;248;1214;-45
2022/11/30 04:25:09;;;;;;;;;;;22.70;37.20;;;;;;478279;248;1673;-44
2022/11/30 04:27:11;;;;;;;;;;;22.70;37.20;;;;;;478221;248;1389;-45
2022/11/30 04:29:12;;;;;;;;;;;22.70;37.20;;;;;;478321;248;1383;-44
2022/11/30 04:31:13;;;;;;;;;;;22.70;37.20;;;;;;478220;248;1237;-45
2022/11/30 04:33:15;;;;;;;;;;;22.80;37.20;;;;;;478356;248;1284;-45
2022/11/30 04:35:16;;;;;;;;;;;22.80;37.10;;;;;;478145;248;1340;-45
2022/11/30 04:37:17;;;;;;;;;;;22.80;37.10;;;;;;478097;248;1587;-45
2022/11/30 04:39:18;;;;;;;;;;;22.80;37.10;;;;;;478555;248;1432;-45
2022/11/30 04:41:20;;;;;;;;;;;22.80;37.00;;;;;;478232;248;2198;-45
2022/11/30 04:43:21;;;;;;;;;;;22.90;37.00;;;;;;478417;248;1339;-45
2022/11/30 04:45:22;;;;;;;;;;;22.90;37.00;;;;;;478205;248;1417;-45
2022/11/30 04:47:24;;;;;;;;;;;22.90;37.00;;;;;;478129;248;1684;-45
2022/11/30 04:49:25;;;;;;;;;;;22.90;36.90;;;;;;478535;248;1417;-45
2022/11/30 04:51:26;;;;;;;;;;;22.90;36.80;;;;;;478039;248;1629;-45
2022/11/30 04:53:28;;;;;;;;;;;23.00;36.90;;;;;;478227;248;1319;-44
2022/11/30 04:55:29;;;;;;;;;;;23.00;36.90;;;;;;478311;248;1751;-45
2022/11/30 04:57:30;;;;;;;;;;;23.00;36.80;;;;;;478200;248;1959;-44
2022/11/30 04:59:32;;;;;;;;;;;23.00;36.80;;;;;;478227;248;1326;-44
2022/11/30 05:01:33;;;;;;;;;;;23.00;36.80;;;;;;478238;248;2183;-44
2022/11/30 05:03:34;;;;;;;;;;;23.00;36.80;;;;;;478352;248;1207;-44
2022/11/30 05:05:36;;;;;;;;;;;23.00;36.80;;;;;;478310;248;1708;-44
2022/11/30 05:07:37;;;;;;;;;;;23.10;36.80;;;;;;478733;248;1255;-45
2022/11/30 05:09:38;;;;;;;;;;;23.10;36.70;;;;;;478440;248;1262;-45
2022/11/30 05:11:40;;;;;;;;;;;23.10;36.80;;;;;;478718;248;1255;-45
2022/11/30 05:13:41;;;;;;;;;;;23.10;36.80;;;;;;478395;248;1267;-45
2022/11/30 05:15:42;;;;;;;;;;;23.10;36.80;;;;;;478281;248;1239;-45
2022/11/30 05:17:44;;;;;;;;;;;23.10;36.70;;;;;;478445;248;1222;-45
2022/11/30 05:19:45;;;;;;;;;;;23.10;36.70;;;;;;478288;248;2151;-44
2022/11/30 05:21:46;;;;;;;;;;;23.10;36.70;;;;;;478558;248;1304;-45
2022/11/30 05:23:48;;;;;;;;;;;23.10;36.70;;;;;;478287;248;1238;-45
2022/11/30 05:25:49;;;;;;;;;;;23.10;36.70;;;;;;478318;248;1322;-45
2022/11/30 05:27:51;;;;;;;;;;;23.10;36.70;;;;;;478191;248;1228;-44
2022/11/30 05:29:52;;;;;;;;;;;23.10;36.70;;;;;;478281;248;1248;-44
2022/11/30 05:31:53;;;;;;;;;;;23.20;36.80;;;;;;478218;248;1288;-45
2022/11/30 05:33:55;;;;;;;;;;;23.20;36.70;;;;;;478496;248;1272;-44
2022/11/30 05:35:56;;;;;;;;;;;23.20;36.70;;;;;;478239;248;1252;-45
2022/11/30 05:37:57;;;;;;;;;;;23.20;36.70;;;;;;478315;248;1236;-45
2022/11/30 05:39:59;;;;;;;;;;;23.20;36.70;;;;;;478659;248;2201;-45
2022/11/30 05:42:00;;;;;;;;;;;23.20;36.70;;;;;;478146;248;1706;-45
2022/11/30 05:44:01;;;;;;;;;;;23.20;36.70;;;;;;478265;248;1288;-45
2022/11/30 05:46:02;;;;;;;;;;;23.20;36.70;;;;;;478168;248;1255;-45
2022/11/30 05:48:04;;;;;;;;;;;23.20;36.70;;;;;;478266;248;1248;-45
2022/11/30 05:50:05;;;;;;;;;;;23.20;36.70;;;;;;478210;248;1325;-45
2022/11/30 05:52:06;;;;;;;;;;;23.20;36.60;;;;;;478169;248;1405;-44
2022/11/30 05:54:08;;;;;;;;;;;23.20;36.60;;;;;;478392;248;1373;-44
2022/11/30 05:56:09;;;;;;;;;;;23.20;36.60;;;;;;478153;248;1255;-44
2022/11/30 05:58:10;;;;;;;;;;;23.30;36.40;;;;;;478378;248;1468;-45
2022/11/30 06:00:12;;;;;;;;;;;23.30;36.50;;;;;;478139;248;2159;-45
2022/11/30 06:02:13;;;;;;;;;;;23.30;36.40;;;;;;478230;248;1273;-44
2022/11/30 06:04:14;;;;;;;;;;;23.30;36.50;;;;;;478206;248;1384;-44
2022/11/30 06:06:16;;;;;;;;;;;23.30;36.50;;;;;;478140;248;1619;-45
2022/11/30 06:08:17;;;;;;;;;;;23.30;36.50;;;;;;478227;248;1370;-44
2022/11/30 06:10:19;;;;;;;;;;;23.30;36.50;;;;;;478092;248;1272;-45
2022/11/30 06:12:20;;;;;;;;;;;23.20;36.40;;;;;;478304;248;1319;-44
2022/11/30 06:14:21;;;;;;;;;;;23.30;36.50;;;;;;478174;248;1224;-45
2022/11/30 06:16:23;;;;;;;;;;;23.30;36.50;;;;;;478292;248;1263;-45
2022/11/30 06:18:24;;;;;;;;;;;23.30;36.50;;;;;;478283;248;1342;-45
2022/11/30 06:20:25;;;;;;;;;;;23.30;36.50;;;;;;478239;248;2159;-44
2022/11/30 06:22:27;;;;;;;;;;;23.30;36.50;;;;;;478168;248;1266;-45
2022/11/30 06:24:28;;;;;;;;;;;23.30;36.50;;;;;;478315;248;1277;-45
2022/11/30 06:26:29;;;;;;;;;;;23.30;36.50;;;;;;478272;248;1396;-45
2022/11/30 06:28:31;;;;;;;;;;;23.30;36.50;;;;;;478258;248;1168;-45
2022/11/30 06:30:32;;;;;;;;;;;23.30;36.50;;;;;;478621;248;1199;-45
2022/11/30 06:32:33;;;;;;;;;;;23.30;36.50;;;;;;478228;248;1155;-45
2022/11/30 06:34:35;;;;;;;;;;;23.30;36.60;;;;;;478616;248;1115;-44
2022/11/30 06:36:36;;;;;;;;;;;23.20;36.90;;;;;;478523;248;1193;-44
2022/11/30 06:38:37;;;;;;;;;;;22.90;37.10;;;;;;478294;248;1504;-44
2022/11/30 06:40:39;;;;;;;;;;;22.70;37.50;;;;;;478277;248;2163;-44
2022/11/30 06:42:40;;;;;;;;;;;22.60;37.80;;;;;;478206;248;1562;-44
2022/11/30 06:44:41;;;;;;;;;;;22.40;38.10;;;;;;478271;248;1318;-44
2022/11/30 06:46:43;;;;;;;;;;;22.30;38.30;;;;;;478284;248;1551;-44
2022/11/30 06:48:44;;;;;;;;;;;22.20;38.60;;;;;;478148;248;1331;-44
2022/11/30 06:50:45;;;;;;;;;;;22.00;38.70;;;;;;478324;248;1291;-44
2022/11/30 06:52:47;;;;;;;;;;;22.00;38.90;;;;;;478270;248;1326;-44
2022/11/30 06:54:48;;;;;;;;;;;22.00;38.90;;;;;;478290;248;1419;-45
2022/11/30 06:56:49;;;;;;;;;;;22.00;38.90;;;;;;478249;248;1263;-44
2022/11/30 06:58:53;;;;;;;;;;;21.90;39.10;;;;;;478257;248;1320;-44
2022/11/30 07:00:52;;;;;;;;;;;21.90;39.10;;;;;;478232;249;2202;-44
2022/11/30 07:02:54;;;;;;;;;;;21.80;39.20;;;;;;478187;248;1323;-44
2022/11/30 07:04:55;;;;;;;;;;;21.90;39.40;;;;;;478124;248;1222;-44
2022/11/30 07:06:57;;;;;;;;;;;21.80;39.30;;;;;;478228;248;1280;-44
2022/11/30 07:08:57;;;;;;;;;;;21.80;39.30;;;;;;478210;249;1624;-44
2022/11/30 07:10:59;;;;;;;;;;;21.70;39.40;;;;;;478240;248;1262;-44
2022/11/30 07:13:00;;;;;;;;;;;21.70;39.40;;;;;;478096;248;1270;-44
2022/11/30 07:15:01;;;;;;;;;;;21.80;39.40;;;;;;478391;248;1189;-44
2022/11/30 07:17:03;;;;;;;;;;;21.70;39.30;;;;;;478175;248;1237;-44
2022/11/30 07:19:04;;;;;;;;;;;21.70;39.30;;;;;;478005;248;1540;-44
2022/11/30 07:21:05;;;;;;;;;;;21.70;39.30;;;;;;478156;248;2194;-45
2022/11/30 07:27:46;;;;;;;;;;;21.70;39.20;;;;;;478164;249;1269;-44
2022/11/30 07:29:47;;;;;;;;;;;21.70;39.20;;;;;;478089;248;1548;-44
2022/11/30 07:31:48;;;;;;;;;;;21.70;39.20;;;;;;478070;248;1674;-44
2022/11/30 07:33:50;;;;;;;;;;;21.60;39.30;;;;;;478183;248;1230;-44
2022/11/30 07:35:51;;;;;;;;;;;21.70;39.30;;;;;;478287;248;1304;-44
2022/11/30 07:37:52;;;;;;;;;;;21.60;39.30;;;;;;478418;248;1265;-44
2022/11/30 07:39:54;;;;;;;;;;;21.60;39.30;;;;;;478086;248;1253;-45
2022/11/30 07:41:55;;;;;;;;;;;21.60;39.30;;;;;;477876;244;2199;-44
2022/11/30 07:43:56;;;;;;;;;;;21.60;39.40;;;;;;478093;248;1263;-44
2022/11/30 07:45:58;;;;;;;;;;;21.60;39.40;;;;;;477920;248;1278;-45
2022/11/30 07:47:59;;;;;;;;;;;21.60;39.30;;;;;;477958;248;1264;-44
2022/11/30 07:50:00;;;;;;;;;;;21.60;39.30;;;;;;477969;248;1257;-44
2022/11/30 07:52:03;;;;;;;;;;;21.60;39.30;;;;;;478014;248;1198;-44
2022/11/30 07:54:04;;;;;;;;;;;21.60;39.30;;;;;;478052;248;1459;-44
2022/11/30 07:56:05;;;;;;;;;;;21.60;39.30;;;;;;478162;248;1262;-44
2022/11/30 07:58:06;;;;;;;;;;;21.50;39.20;;;;;;477980;248;1308;-44
2022/11/30 08:00:08;;;;;;;;;;;21.50;39.40;;;;;;478002;248;1348;-44
2022/11/30 08:02:10;;;;;;;;;;;21.50;39.30;;;;;;477701;248;2155;-44
2022/11/30 08:04:12;;;;;;;;;;;21.50;39.30;;;;;;477662;248;1372;-44
2022/11/30 08:06:12;;;;;;;;;;;21.50;39.30;;;;;;477648;249;1879;-44
2022/11/30 08:08:14;;;;;;;;;;;21.50;39.30;;;;;;477671;248;1509;-45
2022/11/30 08:10:15;;;;;;;;;;;21.50;39.30;;;;;;477776;248;1307;-44
2022/11/30 08:12:16;;;;;;;;;;;21.50;39.30;;;;;;477754;248;1308;-44
2022/11/30 08:14:17;;;;;;;;;;;21.50;39.30;;;;;;477712;248;1250;-44
2022/11/30 08:16:19;;;;;;;;;;;21.50;39.30;;;;;;477702;248;1489;-44
2022/11/30 08:18:20;;;;;;;;;;;21.50;39.30;;;;;;477670;248;1351;-44
2022/11/30 08:20:22;;;;;;;;;;;21.40;39.30;;;;;;477600;248;1452;-44
2022/11/30 08:22:23;;;;;;;;;;;21.50;39.30;;;;;;477823;248;2155;-44
2022/11/30 08:24:25;;;;;;;;;;;21.50;39.30;;;;;;477726;248;1242;-44
2022/11/30 08:26:26;;;;;;;;;;;21.50;39.30;;;;;;477546;248;1352;-45
2022/11/30 08:28:27;;;;;;;;;;;21.50;39.30;;;;;;477725;248;1360;-44
2022/11/30 08:30:29;;;;;;;;;;;21.50;39.30;;;;;;477680;248;1298;-44
2022/11/30 08:32:30;;;;;;;;;;;21.50;39.20;;;;;;477769;248;1253;-44
2022/11/30 08:34:31;;;;;;;;;;;21.40;39.30;;;;;;477782;248;1313;-44
2022/11/30 08:36:33;;;;;;;;;;;21.40;39.30;;;;;;477674;248;1296;-44
2022/11/30 08:38:34;;;;;;;;;;;21.40;39.30;;;;;;477714;248;1290;-44
2022/11/30 08:40:35;;;;;;;;;;;21.40;39.30;;;;;;477961;248;1193;-44
2022/11/30 08:42:37;;;;;;;;;;;21.40;39.30;;;;;;477606;248;2190;-44
2022/11/30 08:44:38;;;;;;;;;;;21.40;39.40;;;;;;477628;248;1328;-44
2022/11/30 08:46:39;;;;;;;;;;;21.40;39.30;;;;;;477703;248;1248;-44
2022/11/30 08:48:41;;;;;;;;;;;21.30;39.30;;;;;;477715;248;1303;-44
2022/11/30 08:50:42;;;;;;;;;;;21.30;39.30;;;;;;477689;248;1217;-44
2022/11/30 08:52:43;;;;;;;;;;;21.40;39.30;;;;;;477742;248;1507;-44
2022/11/30 08:54:45;;;;;;;;;;;21.30;39.30;;;;;;477815;248;1240;-44
2022/11/30 08:56:46;;;;;;;;;;;21.30;39.20;;;;;;477415;248;1267;-44
2022/11/30 08:58:47;;;;;;;;;;;21.30;39.30;;;;;;477445;248;1464;-44
2022/11/30 09:00:48;;;;;;;;;;;21.30;39.30;;;;;;477541;248;1356;-44
2022/11/30 09:02:50;;;;;;;;;;;21.30;39.30;;;;;;477501;248;2194;-44
2022/11/30 09:04:52;;;;;;;;;;;21.30;39.30;;;;;;477594;248;1348;-44
2022/11/30 09:06:57;;;;;;;;;;;21.30;39.40;;;;;;477469;248;1736;-44
2022/11/30 09:08:54;;;;;;;;;;;21.30;39.30;;;;;;477380;249;1654;-44
2022/11/30 09:10:56;;;;;;;;;;;21.50;39.10;;;;;;477687;248;1270;-44
2022/11/30 09:12:57;;;;;;;;;;;21.70;38.70;;;;;;477736;248;1905;-44
2022/11/30 09:14:58;;;;;;;;;;;21.90;38.30;;;;;;477459;248;1326;-44
2022/11/30 09:17:00;;;;;;;;;;;22.10;37.90;;;;;;477559;248;1214;-45
2022/11/30 09:19:01;;;;;;;;;;;22.20;37.60;;;;;;477445;248;1224;-45
2022/11/30 09:21:03;;;;;;;;;;;22.30;37.30;;;;;;477770;248;1200;-44
2022/11/30 09:23:04;;;;;;;;;;;22.40;37.30;;;;;;477792;248;2198;-44
2022/11/30 09:25:05;;;;;;;;;;;22.40;37.30;;;;;;477629;248;1182;-44
2022/11/30 09:27:07;;;;;;;;;;;22.30;37.50;;;;;;477707;248;1287;-44
2022/11/30 09:29:08;;;;;;;;;;;22.10;37.70;;;;;;477655;248;1269;-44
2022/11/30 09:31:09;;;;;;;;;;;22.00;37.90;;;;;;477760;248;1265;-44
2022/11/30 09:33:11;;;;;;;;;;;21.80;38.10;;;;;;477632;248;1289;-44
2022/11/30 09:35:12;;;;;;;;;;;21.70;38.40;;;;;;477753;248;1271;-45
2022/11/30 09:37:14;;;;;;;;;;;21.70;38.50;;;;;;477719;248;1274;-44
2022/11/30 09:39:15;;;;;;;;;;;21.60;38.60;;;;;;477633;248;1218;-44
2022/11/30 09:41:16;;;;;;;;;;;21.60;38.70;;;;;;477577;248;2147;-44
2022/11/30 09:43:18;;;;;;;;;;;21.50;38.70;;;;;;477582;248;1296;-44
2022/11/30 09:45:19;;;;;;;;;;;21.50;38.70;;;;;;477666;248;1264;-44
2022/11/30 09:47:20;;;;;;;;;;;21.50;38.70;;;;;;477855;248;1568;-44
2022/11/30 09:49:22;;;;;;;;;;;21.60;38.60;;;;;;478281;248;1247;-44
2022/11/30 09:51:23;;;;;;;;;;;21.60;38.50;;;;;;477863;248;1194;-44
2022/11/30 09:53:25;;;;;;;;;;;21.70;38.50;;;;;;477761;248;1267;-44
2022/11/30 09:55:26;;;;;;;;;;;21.80;38.40;;;;;;477810;248;1455;-44
2022/11/30 09:57:27;;;;;;;;;;;21.80;38.20;;;;;;477647;248;1319;-44
2022/11/30 09:59:31;;;;;;;;;;;21.80;38.20;;;;;;477494;248;1291;-44
2022/11/30 10:01:30;;;;;;;;;;;21.80;38.10;;;;;;477192;249;2194;-44
2022/11/30 10:03:31;;;;;;;;;;;21.80;38.10;;;;;;477876;248;1315;-44
2022/11/30 10:05:33;;;;;;;;;;;21.90;38.10;;;;;;477565;248;1516;-44
2022/11/30 10:07:34;;;;;;;;;;;22.00;38.00;;;;;;477608;248;1204;-44
2022/11/30 10:09:35;;;;;;;;;;;21.90;37.80;;;;;;476047;248;29052;-45
2022/11/30 10:11:37;;;;;;;;;;;22.00;37.90;;;;;;471950;252;1555;-44
2022/11/30 10:13:39;;;;;;;;;;;22.00;37.80;;;;;;470436;253;1321;-45
2022/11/30 10:15:40;;;;;;;;;;;22.00;37.70;;;;;;458196;259;1312;-44
2022/11/30 10:17:41;;;;;;;;;;;22.00;37.70;;;;;;463858;255;1218;-44
2022/11/30 10:19:42;;;;;;;;;;;22.00;37.70;;;;;;463910;256;1658;-45
2022/11/30 10:21:44;;;;;;;;;;;22.00;37.70;;;;;;464048;256;2199;-44
2022/11/30 10:23:45;;;;;;;;;;;22.00;37.70;;;;;;464105;256;1483;-44
2022/11/30 10:25:46;;;;;;;;;;;22.00;37.70;;;;;;464236;256;1249;-44
2022/11/30 10:27:47;;;;;;;;;;;22.00;37.70;;;;;;464319;256;1394;-44
2022/11/30 10:29:49;;;;;;;;;;;22.00;37.70;;;;;;464004;256;1409;-44
2022/11/30 10:31:50;;;;;;;;;;;22.10;37.70;;;;;;464105;256;1356;-44
2022/11/30 10:33:51;;;;;;;;;;;22.00;37.60;;;;;;464259;256;1237;-44
2022/11/30 10:35:53;;;;;;;;;;;22.00;37.70;;;;;;464051;256;1492;-44
2022/11/30 10:37:54;;;;;;;;;;;22.00;37.70;;;;;;464323;256;1367;-44
2022/11/30 10:39:55;;;;;;;;;;;22.00;37.70;;;;;;464142;256;1183;-45
2022/11/30 10:41:57;;;;;;;;;;;22.00;37.60;;;;;;463834;256;2214;-45
2022/11/30 10:43:58;;;;;;;;;;;22.00;37.60;;;;;;464218;256;1309;-45
2022/11/30 10:45:59;;;;;;;;;;;22.00;37.60;;;;;;464022;256;1408;-45
2022/11/30 10:48:01;;;;;;;;;;;22.00;37.70;;;;;;464009;256;1375;-46
2022/11/30 10:50:02;;;;;;;;;;;22.00;37.60;;;;;;464034;256;1306;-44
2022/11/30 10:52:03;;;;;;;;;;;22.00;37.50;;;;;;464142;256;1224;-44
2022/11/30 10:54:05;;;;;;;;;;;22.10;37.40;;;;;;463978;256;1238;-45
2022/11/30 10:56:06;;;;;;;;;;;22.10;37.30;;;;;;463941;256;1612;-44
2022/11/30 10:58:07;;;;;;;;;;;22.10;37.40;;;;;;464535;256;1281;-44
2022/11/30 11:00:09;;;;;;;;;;;22.10;37.50;;;;;;463692;256;1213;-44
2022/11/30 11:02:10;;;;;;;;;;;22.10;37.50;;;;;;464091;256;2197;-44
2022/11/30 11:04:11;;;;;;;;;;;22.10;37.40;;;;;;463933;256;1220;-45
2022/11/30 11:06:13;;;;;;;;;;;22.10;37.40;;;;;;464051;256;1315;-45
2022/11/30 11:08:14;;;;;;;;;;;22.10;37.50;;;;;;463820;256;1310;-44
2022/11/30 11:10:15;;;;;;;;;;;22.10;37.40;;;;;;464082;256;1386;-44
2022/11/30 11:12:17;;;;;;;;;;;22.10;37.40;;;;;;464044;256;1222;-44
2022/11/30 11:14:18;;;;;;;;;;;22.10;37.40;;;;;;463786;256;1684;-45
2022/11/30 11:16:20;;;;;;;;;;;22.00;37.40;;;;;;464088;256;1301;-44
2022/11/30 11:18:21;;;;;;;;;;;22.10;37.40;;;;;;464109;256;1459;-45
2022/11/30 11:20:23;;;;;;;;;;;22.10;37.40;;;;;;463998;256;1353;-44
2022/11/30 11:22:24;;;;;;;;;;;22.10;37.30;;;;;;463794;256;2170;-44
2022/11/30 11:24:25;;;;;;;;;;;22.10;37.30;;;;;;463743;256;1454;-44
2022/11/30 11:26:27;;;;;;;;;;;22.10;37.30;;;;;;463942;256;1301;-44
2022/11/30 11:28:28;;;;;;;;;;;22.10;37.30;;;;;;464070;256;1314;-45
2022/11/30 11:30:29;;;;;;;;;;;22.10;37.30;;;;;;464324;256;1263;-44
2022/11/30 11:32:31;;;;;;;;;;;22.10;37.30;;;;;;464140;256;1229;-45
2022/11/30 11:34:33;;;;;;;;;;;22.10;37.30;;;;;;464169;256;1249;-46
2022/11/30 11:36:35;;;;;;;;;;;22.10;37.20;;;;;;464060;256;1920;-45
2022/11/30 11:38:34;;;;;;;;;;;22.20;37.20;;;;;;464062;256;1784;-45
2022/11/30 11:40:36;;;;;;;;;;;22.20;37.20;;;;;;464011;256;1294;-45
2022/11/30 11:42:37;;;;;;;;;;;22.20;37.20;;;;;;464168;256;2206;-45
2022/11/30 11:44:39;;;;;;;;;;;22.20;37.10;;;;;;464206;256;1302;-45
2022/11/30 11:46:40;;;;;;;;;;;22.20;37.10;;;;;;464160;256;1211;-45
2022/11/30 11:48:41;;;;;;;;;;;22.20;37.10;;;;;;464253;256;1241;-45
2022/11/30 11:50:43;;;;;;;;;;;22.30;37.00;;;;;;464287;256;1327;-45
2022/11/30 11:52:44;;;;;;;;;;;22.30;37.00;;;;;;464264;256;1340;-45
2022/11/30 11:54:45;;;;;;;;;;;22.30;36.90;;;;;;464141;256;1400;-45
2022/11/30 11:56:47;;;;;;;;;;;22.30;36.80;;;;;;463922;256;1356;-45
2022/11/30 11:58:48;;;;;;;;;;;22.30;36.80;;;;;;464214;256;1526;-45
2022/11/30 12:00:49;;;;;;;;;;;22.30;36.90;;;;;;464254;256;1283;-45